Time;durP1;ratioP1;P1;durP2;ratioP2;P2;SDS_P1;SDS_P2;PMS_P1;PMS_P2;Temp;Humidity;BMP_temperature;BMP_pressure;BME280_temperature;BME280_humidity;BME280_pressure;Samples;Min_cycle;Max_cycle;Signal;HPM_P1;HPM_P2
2021/07/29 00:00:05;;;;;;;;;;;;;;;;;;2114315;28;44731;-73
2021/07/29 00:01:11;;;;;;;;;;;;;;;;;;2113707;28;45936;-73
2021/07/29 00:02:12;;;;;;;;;;;;;;;;;;2114500;28;43951;-73
2021/07/29 00:03:13;;;;;;;;;;;;;;;;;;2114835;28;46547;-73
2021/07/29 00:04:15;;;;;;;;;;;;;;;;;;2114436;28;47200;-73
2021/07/29 00:05:16;;;;;;;;;;;;;;;;;;2114280;28;45510;-73
2021/07/29 00:06:18;;;;;;;;;;;;;;;;;;2114347;28;45877;-73
2021/07/29 00:07:19;;;;;;;;;;;;;;;;;;2106096;28;44193;-72
2021/07/29 00:08:20;;;;;;;;;;;;;;;;;;2105819;28;44837;-71
2021/07/29 00:09:22;;;;;;;;;;;;;;;;;;2105605;28;46280;-71
2021/07/29 00:10:24;;;;;;;;;;;;;;;;;;2105853;28;46103;-71
2021/07/29 00:11:25;;;;;;;;;;;;;;;;;;2113927;28;45634;-71
2021/07/29 00:12:27;;;;;;;;;;;;;;;;;;2113007;27;46933;-71
2021/07/29 00:13:28;;;;;;;;;;;;;;;;;;2113879;28;44950;-71
2021/07/29 00:14:30;;;;;;;;;;;;;;;;;;2114527;28;47544;-71
2021/07/29 00:15:31;;;;;;;;;;;;;;;;;;2114048;28;43668;-70
2021/07/29 00:16:42;;;;;;;;;;;;;;;;;;2114081;28;47169;-70
2021/07/29 00:19:05;;;;;;;;;;;;;;;;;;2114215;28;45233;-71
2021/07/29 00:20:07;;;;;;;;;;;;;;;;;;2114003;28;45472;-70
2021/07/29 00:21:08;;;;;;;;;;;;;;;;;;2105470;28;44136;-70
2021/07/29 00:22:10;;;;;;;;;;;;;;;;;;2105434;28;46781;-70
2021/07/29 00:23:11;;;;;;;;;;;;;;;;;;2105618;28;46587;-70
2021/07/29 00:24:13;;;;;;;;;;;;;;;;;;2113691;28;46777;-70
2021/07/29 00:25:15;;;;;;;;;;;;;;;;;;2105909;28;45334;-71
2021/07/29 00:26:17;;;;;;;;;;;;;;;;;;2105799;28;44453;-71
2021/07/29 00:27:18;;;;;;;;;;;;;;;;;;2114149;27;44047;-71
2021/07/29 00:28:19;;;;;;;;;;;;;;;;;;2122251;27;45653;-71
2021/07/29 00:29:21;;;;;;;;;;;;;;;;;;2114111;28;45294;-71
2021/07/29 00:30:23;;;;;;;;;;;;;;;;;;2105463;28;46098;-71
2021/07/29 00:31:29;;;;;;;;;;;;;;;;;;2114124;28;46274;-71
2021/07/29 00:32:31;;;;;;;;;;;;;;;;;;2113689;28;44296;-71
2021/07/29 00:33:33;;;;;;;;;;;;;;;;;;2113927;28;43934;-71
2021/07/29 00:34:35;;;;;;;;;;;;;;;;;;2114449;28;48351;-72
2021/07/29 00:35:36;;;;;;;;;;;;;;;;;;2114478;27;43489;-72
2021/07/29 00:36:39;;;;;;;;;;;;;;;;;;2115217;28;44340;-71
2021/07/29 00:37:41;;;;;;;;;;;;;;;;;;2114396;28;45332;-71
2021/07/29 00:38:42;;;;;;;;;;;;;;;;;;2105656;28;44973;-71
2021/07/29 00:39:43;;;;;;;;;;;;;;;;;;2114464;28;46977;-71
2021/07/29 00:40:45;;;;;;;;;;;;;;;;;;2113948;28;46619;-71
2021/07/29 00:41:48;;;;;;;;;;;;;;;;;;2106846;28;14896;-71
2021/07/29 00:42:49;;;;;;;;;;;;;;;;;;2105925;28;46985;-72
2021/07/29 00:43:58;;;;;;;;;;;;;;;;;;2114548;28;43325;-73
2021/07/29 00:44:59;;;;;;;;;;;;;;;;;;2107084;28;43698;-73
2021/07/29 00:46:01;;;;;;;;;;;;;;;;;;2105750;28;45343;-73
2021/07/29 00:47:02;;;;;;;;;;;;;;;;;;2113941;28;46624;-72
2021/07/29 00:48:04;;;;;;;;;;;;;;;;;;2115102;28;46707;-71
2021/07/29 00:49:10;;;;;;;;;;;;;;;;;;2114152;28;45405;-72
2021/07/29 00:50:12;;;;;;;;;;;;;;;;;;2114491;28;44013;-72
2021/07/29 00:51:14;;;;;;;;;;;;;;;;;;2106456;28;42670;-73
2021/07/29 00:52:16;;;;;;;;;;;;;;;;;;2114993;28;46738;-73
2021/07/29 00:53:17;;;;;;;;;;;;;;;;;;2114262;28;44317;-73
2021/07/29 00:54:19;;;;;;;;;;;;;;;;;;2114621;28;45930;-73
2021/07/29 00:55:21;;;;;;;;;;;;;;;;;;2115542;28;45376;-74
2021/07/29 00:56:22;;;;;;;;;;;;;;;;;;2116422;28;43678;-74
2021/07/29 00:57:24;;;;;;;;;;;;;;;;;;2116708;28;45826;-74
2021/07/29 00:58:26;;;;;;;;;;;;;;;;;;2114981;28;45244;-74
2021/07/29 00:59:28;;;;;;;;;;;;;;;;;;2115417;28;46857;-74
2021/07/29 01:00:30;;;;;;;;;;;;;;;;;;2106419;28;49411;-74
2021/07/29 01:01:31;;;;;;;;;;;;;;;;;;2106260;28;46206;-74
2021/07/29 01:02:33;;;;;;;;;;;;;;;;;;2114118;28;46305;-71
2021/07/29 01:03:34;;;;;;;;;;;;;;;;;;2114389;27;45661;-72
2021/07/29 01:04:36;;;;;;;;;;;;;;;;;;2123934;27;44440;-72
2021/07/29 01:05:37;;;;;;;;;;;;;;;;;;2123483;27;46929;-72
2021/07/29 01:06:39;;;;;;;;;;;;;;;;;;2114780;28;45859;-72
2021/07/29 01:07:40;;;;;;;;;;;;;;;;;;2106545;28;45552;-72
2021/07/29 01:09:01;;;;;;;;;;;;;;;;;;2114501;28;45731;-72
2021/07/29 01:10:02;;;;;;;;;;;;;;;;;;2117421;27;45267;-72
2021/07/29 01:11:04;;;;;;;;;;;;;;;;;;2125004;27;45763;-73
2021/07/29 01:12:05;;;;;;;;;;;;;;;;;;2115848;27;45143;-73
2021/07/29 01:13:07;;;;;;;;;;;;;;;;;;2117126;27;43876;-71
2021/07/29 01:14:09;;;;;;;;;;;;;;;;;;2116049;27;45836;-72
2021/07/29 01:15:11;;;;;;;;;;;;;;;;;;2115919;27;44039;-71
2021/07/29 01:16:12;;;;;;;;;;;;;;;;;;2124546;27;45918;-72
2021/07/29 01:17:14;;;;;;;;;;;;;;;;;;2115857;27;45632;-71
2021/07/29 01:18:15;;;;;;;;;;;;;;;;;;2115248;27;45992;-69
2021/07/29 01:19:19;;;;;;;;;;;;;;;;;;2122097;27;47060;-70
2021/07/29 01:20:26;;;;;;;;;;;;;;;;;;2114693;27;46538;-69
2021/07/29 01:21:29;;;;;;;;;;;;;;;;;;2114615;27;49830;-69
2021/07/29 01:22:31;;;;;;;;;;;;;;;;;;2122882;27;44716;-69
2021/07/29 01:23:32;;;;;;;;;;;;;;;;;;2114309;27;44472;-70
2021/07/29 01:24:36;;;;;;;;;;;;;;;;;;2115519;27;45612;-73
2021/07/29 01:25:38;;;;;;;;;;;;;;;;;;2123593;27;45050;-73
2021/07/29 01:26:39;;;;;;;;;;;;;;;;;;2115006;27;45337;-71
2021/07/29 01:27:41;;;;;;;;;;;;;;;;;;2115259;27;45200;-72
2021/07/29 01:28:42;;;;;;;;;;;;;;;;;;2123644;27;45058;-72
2021/07/29 01:29:45;;;;;;;;;;;;;;;;;;2124419;27;45175;-71
2021/07/29 01:30:46;;;;;;;;;;;;;;;;;;2124219;27;46546;-72
2021/07/29 01:31:48;;;;;;;;;;;;;;;;;;2124177;27;45274;-73
2021/07/29 01:32:49;;;;;;;;;;;;;;;;;;2123415;27;44229;-73
2021/07/29 01:33:51;;;;;;;;;;;;;;;;;;2123626;27;45075;-74
2021/07/29 01:34:52;;;;;;;;;;;;;;;;;;2124467;27;46136;-74
2021/07/29 01:35:54;;;;;;;;;;;;;;;;;;2124533;27;46473;-74
2021/07/29 01:36:55;;;;;;;;;;;;;;;;;;2123738;27;44961;-73
2021/07/29 01:37:57;;;;;;;;;;;;;;;;;;2123826;27;43228;-72
2021/07/29 01:38:58;;;;;;;;;;;;;;;;;;2123542;27;44187;-72
2021/07/29 01:40:01;;;;;;;;;;;;;;;;;;2115667;27;42477;-72
2021/07/29 01:41:03;;;;;;;;;;;;;;;;;;2114928;27;45288;-72
2021/07/29 01:42:04;;;;;;;;;;;;;;;;;;2114974;27;45270;-70
2021/07/29 01:43:06;;;;;;;;;;;;;;;;;;2115170;27;45336;-71
2021/07/29 01:44:07;;;;;;;;;;;;;;;;;;2115558;27;43966;-70
2021/07/29 01:45:09;;;;;;;;;;;;;;;;;;2114922;27;44103;-70
2021/07/29 01:46:10;;;;;;;;;;;;;;;;;;2115293;27;43277;-70
2021/07/29 01:47:12;;;;;;;;;;;;;;;;;;2123357;27;45553;-69
2021/07/29 01:48:13;;;;;;;;;;;;;;;;;;2123393;27;46016;-69
2021/07/29 01:49:21;;;;;;;;;;;;;;;;;;2114960;27;46749;-71
2021/07/29 01:50:23;;;;;;;;;;;;;;;;;;2123739;27;46582;-72
2021/07/29 01:51:25;;;;;;;;;;;;;;;;;;2123313;27;45291;-72
2021/07/29 01:52:27;;;;;;;;;;;;;;;;;;2123481;27;45401;-71
2021/07/29 01:53:28;;;;;;;;;;;;;;;;;;2123530;27;45745;-72
2021/07/29 01:54:30;;;;;;;;;;;;;;;;;;2123699;27;44148;-71
2021/07/29 01:55:31;;;;;;;;;;;;;;;;;;2115426;27;46856;-71
2021/07/29 01:56:32;;;;;;;;;;;;;;;;;;2114927;27;46890;-72
2021/07/29 01:57:35;;;;;;;;;;;;;;;;;;2123459;27;45422;-71
2021/07/29 01:58:36;;;;;;;;;;;;;;;;;;2123601;27;45898;-71
2021/07/29 01:59:38;;;;;;;;;;;;;;;;;;2115448;27;44422;-72
2021/07/29 02:00:40;;;;;;;;;;;;;;;;;;2123880;27;45370;-71
2021/07/29 02:01:42;;;;;;;;;;;;;;;;;;2122813;27;47095;-71
2021/07/29 02:02:43;;;;;;;;;;;;;;;;;;2114643;27;45291;-71
2021/07/29 02:03:45;;;;;;;;;;;;;;;;;;2123132;27;45273;-71
2021/07/29 02:04:47;;;;;;;;;;;;;;;;;;2115050;27;46741;-71
2021/07/29 02:05:48;;;;;;;;;;;;;;;;;;2123464;27;45343;-72
2021/07/29 02:06:49;;;;;;;;;;;;;;;;;;2123442;27;43019;-71
2021/07/29 02:07:51;;;;;;;;;;;;;;;;;;2114986;27;47334;-71
2021/07/29 02:08:52;;;;;;;;;;;;;;;;;;2115142;27;45815;-71
2021/07/29 02:09:55;;;;;;;;;;;;;;;;;;2123437;27;45847;-71
2021/07/29 02:10:57;;;;;;;;;;;;;;;;;;2123116;27;44576;-72
2021/07/29 02:11:59;;;;;;;;;;;;;;;;;;2115052;27;44744;-72
2021/07/29 02:13:01;;;;;;;;;;;;;;;;;;2115255;27;46336;-72
2021/07/29 02:14:03;;;;;;;;;;;;;;;;;;2123354;27;47300;-72
2021/07/29 02:15:05;;;;;;;;;;;;;;;;;;2123664;27;42722;-71
2021/07/29 02:16:09;;;;;;;;;;;;;;;;;;2123489;27;44381;-72
2021/07/29 02:17:11;;;;;;;;;;;;;;;;;;2115546;27;44690;-71
2021/07/29 02:18:12;;;;;;;;;;;;;;;;;;2115017;27;46247;-71
2021/07/29 02:19:14;;;;;;;;;;;;;;;;;;2115063;27;47017;-71
2021/07/29 02:20:15;;;;;;;;;;;;;;;;;;2114972;27;45934;-71
2021/07/29 02:21:16;;;;;;;;;;;;;;;;;;2123204;27;46119;-71
2021/07/29 02:22:18;;;;;;;;;;;;;;;;;;2124265;27;45932;-71
2021/07/29 02:23:19;;;;;;;;;;;;;;;;;;2123324;27;44452;-72
2021/07/29 02:24:21;;;;;;;;;;;;;;;;;;2115238;27;44198;-72
2021/07/29 02:25:22;;;;;;;;;;;;;;;;;;2115212;27;43702;-72
2021/07/29 02:26:23;;;;;;;;;;;;;;;;;;2115713;27;44770;-71
2021/07/29 02:27:25;;;;;;;;;;;;;;;;;;2123504;27;46093;-71
2021/07/29 02:28:26;;;;;;;;;;;;;;;;;;2115554;27;46074;-71
2021/07/29 02:29:28;;;;;;;;;;;;;;;;;;2123994;27;45146;-71
2021/07/29 02:30:29;;;;;;;;;;;;;;;;;;2121606;27;45284;-72
2021/07/29 02:31:31;;;;;;;;;;;;;;;;;;2115741;27;45248;-73
2021/07/29 02:32:32;;;;;;;;;;;;;;;;;;2115101;28;45581;-71
2021/07/29 02:33:34;;;;;;;;;;;;;;;;;;2115669;28;43552;-72
2021/07/29 02:34:35;;;;;;;;;;;;;;;;;;2115059;28;45783;-71
2021/07/29 02:35:37;;;;;;;;;;;;;;;;;;2114287;28;46526;-71
2021/07/29 02:36:38;;;;;;;;;;;;;;;;;;2115630;28;45363;-71
2021/07/29 02:37:40;;;;;;;;;;;;;;;;;;2116050;28;46623;-72
2021/07/29 02:38:41;;;;;;;;;;;;;;;;;;2115374;28;45491;-72
2021/07/29 02:39:43;;;;;;;;;;;;;;;;;;2115769;27;43706;-73
2021/07/29 02:40:44;;;;;;;;;;;;;;;;;;2115738;27;47010;-72
2021/07/29 02:41:46;;;;;;;;;;;;;;;;;;2115506;27;43870;-72
2021/07/29 02:42:48;;;;;;;;;;;;;;;;;;2115591;28;42688;-72
2021/07/29 02:43:49;;;;;;;;;;;;;;;;;;2115154;28;44183;-73
2021/07/29 02:44:51;;;;;;;;;;;;;;;;;;2115033;28;45439;-72
2021/07/29 02:45:52;;;;;;;;;;;;;;;;;;2114963;28;46460;-72
2021/07/29 02:46:53;;;;;;;;;;;;;;;;;;2106912;28;44170;-72
2021/07/29 02:47:55;;;;;;;;;;;;;;;;;;2106675;28;45920;-72
2021/07/29 02:48:56;;;;;;;;;;;;;;;;;;2115013;28;45458;-73
2021/07/29 02:49:58;;;;;;;;;;;;;;;;;;2114830;28;46610;-73
2021/07/29 02:50:59;;;;;;;;;;;;;;;;;;2114646;28;45568;-72
2021/07/29 02:52:01;;;;;;;;;;;;;;;;;;2114407;28;45062;-72
2021/07/29 02:53:03;;;;;;;;;;;;;;;;;;2115388;27;45635;-72
2021/07/29 02:54:05;;;;;;;;;;;;;;;;;;2114688;28;46031;-72
2021/07/29 02:55:07;;;;;;;;;;;;;;;;;;2114500;28;45627;-71
2021/07/29 02:56:08;;;;;;;;;;;;;;;;;;2114670;28;47010;-73
2021/07/29 02:57:10;;;;;;;;;;;;;;;;;;2115366;27;43162;-72
2021/07/29 02:58:11;;;;;;;;;;;;;;;;;;2114572;28;45387;-72
2021/07/29 02:59:13;;;;;;;;;;;;;;;;;;2106456;28;45484;-71
2021/07/29 03:00:14;;;;;;;;;;;;;;;;;;2106123;27;45844;-71
2021/07/29 03:01:16;;;;;;;;;;;;;;;;;;2122824;27;44441;-72
2021/07/29 03:02:17;;;;;;;;;;;;;;;;;;2123248;27;45699;-72
2021/07/29 03:03:19;;;;;;;;;;;;;;;;;;2123500;27;45616;-71
2021/07/29 03:04:20;;;;;;;;;;;;;;;;;;2122562;27;45683;-71
2021/07/29 03:05:22;;;;;;;;;;;;;;;;;;2122910;27;45516;-71
2021/07/29 03:06:23;;;;;;;;;;;;;;;;;;2122779;27;44282;-71
2021/07/29 03:07:26;;;;;;;;;;;;;;;;;;2115332;27;44362;-71
2021/07/29 03:08:28;;;;;;;;;;;;;;;;;;2123251;27;46757;-71
2021/07/29 03:09:29;;;;;;;;;;;;;;;;;;2122955;27;46531;-71
2021/07/29 03:10:30;;;;;;;;;;;;;;;;;;2123258;27;45337;-70
2021/07/29 03:11:32;;;;;;;;;;;;;;;;;;2122556;27;46624;-70
2021/07/29 03:12:33;;;;;;;;;;;;;;;;;;2122504;27;47003;-70
2021/07/29 03:13:35;;;;;;;;;;;;;;;;;;2123021;27;44078;-70
2021/07/29 03:14:36;;;;;;;;;;;;;;;;;;2123352;27;47081;-70
2021/07/29 03:15:37;;;;;;;;;;;;;;;;;;2123030;27;45395;-69
2021/07/29 03:16:39;;;;;;;;;;;;;;;;;;2122617;27;47050;-68
2021/07/29 03:17:40;;;;;;;;;;;;;;;;;;2122911;27;44583;-68
2021/07/29 03:18:42;;;;;;;;;;;;;;;;;;2122955;27;44382;-68
2021/07/29 03:19:43;;;;;;;;;;;;;;;;;;2122900;27;47076;-68
2021/07/29 03:20:45;;;;;;;;;;;;;;;;;;2114518;27;46950;-68
2021/07/29 03:21:46;;;;;;;;;;;;;;;;;;2122958;27;44203;-68
2021/07/29 03:22:47;;;;;;;;;;;;;;;;;;2122866;27;46131;-70
2021/07/29 03:23:49;;;;;;;;;;;;;;;;;;2123579;27;47387;-74
2021/07/29 03:24:50;;;;;;;;;;;;;;;;;;2122384;27;45123;-74
2021/07/29 03:25:52;;;;;;;;;;;;;;;;;;2114590;27;44340;-74
2021/07/29 03:26:54;;;;;;;;;;;;;;;;;;2122899;27;45765;-74
2021/07/29 03:27:55;;;;;;;;;;;;;;;;;;2131373;27;44061;-75
2021/07/29 03:28:57;;;;;;;;;;;;;;;;;;2123030;27;45899;-75
2021/07/29 03:29:59;;;;;;;;;;;;;;;;;;2123376;27;46928;-74
2021/07/29 03:31:00;;;;;;;;;;;;;;;;;;2121738;27;45982;-75
2021/07/29 03:32:02;;;;;;;;;;;;;;;;;;2122542;27;46443;-75
2021/07/29 03:33:05;;;;;;;;;;;;;;;;;;2114414;27;45770;-75
2021/07/29 03:34:06;;;;;;;;;;;;;;;;;;2115098;27;46929;-75
2021/07/29 03:35:08;;;;;;;;;;;;;;;;;;2122345;27;45424;-75
2021/07/29 03:36:09;;;;;;;;;;;;;;;;;;2122776;27;46542;-74
2021/07/29 03:37:11;;;;;;;;;;;;;;;;;;2114402;27;41933;-73
2021/07/29 03:38:12;;;;;;;;;;;;;;;;;;2114725;27;43453;-73
2021/07/29 03:39:14;;;;;;;;;;;;;;;;;;2114382;27;43073;-73
2021/07/29 03:40:15;;;;;;;;;;;;;;;;;;2122739;27;45297;-69
2021/07/29 03:41:17;;;;;;;;;;;;;;;;;;2113675;27;46392;-71
2021/07/29 03:42:22;;;;;;;;;;;;;;;;;;2122949;27;44367;-71
2021/07/29 03:43:23;;;;;;;;;;;;;;;;;;2123275;27;45271;-71
2021/07/29 03:44:25;;;;;;;;;;;;;;;;;;2123447;27;45130;-71
2021/07/29 03:45:26;;;;;;;;;;;;;;;;;;2123764;27;44179;-70
2021/07/29 03:46:27;;;;;;;;;;;;;;;;;;2122292;27;45293;-69
2021/07/29 03:47:29;;;;;;;;;;;;;;;;;;2113276;27;45633;-69
2021/07/29 03:48:31;;;;;;;;;;;;;;;;;;2114386;27;43022;-68
2021/07/29 03:49:35;;;;;;;;;;;;;;;;;;2114277;27;46217;-68
2021/07/29 03:50:39;;;;;;;;;;;;;;;;;;2114693;27;43795;-68
2021/07/29 03:51:41;;;;;;;;;;;;;;;;;;2114457;27;46485;-68
2021/07/29 03:52:42;;;;;;;;;;;;;;;;;;2113998;27;43922;-68
2021/07/29 03:53:44;;;;;;;;;;;;;;;;;;2122461;27;46475;-68
2021/07/29 03:54:45;;;;;;;;;;;;;;;;;;2122540;27;47506;-68
2021/07/29 03:55:46;;;;;;;;;;;;;;;;;;2114145;27;46288;-68
2021/07/29 03:56:48;;;;;;;;;;;;;;;;;;2122587;27;46488;-68
2021/07/29 03:57:49;;;;;;;;;;;;;;;;;;2123272;27;46539;-68
2021/07/29 03:58:51;;;;;;;;;;;;;;;;;;2123262;27;45448;-68
2021/07/29 03:59:52;;;;;;;;;;;;;;;;;;2122575;27;45253;-68
2021/07/29 04:00:56;;;;;;;;;;;;;;;;;;2113867;27;46569;-68
2021/07/29 04:01:57;;;;;;;;;;;;;;;;;;2122331;27;45335;-68
2021/07/29 04:02:59;;;;;;;;;;;;;;;;;;2123197;27;45386;-68
2021/07/29 04:04:01;;;;;;;;;;;;;;;;;;2122752;27;45371;-68
2021/07/29 04:05:03;;;;;;;;;;;;;;;;;;2122877;27;46466;-68
2021/07/29 04:06:04;;;;;;;;;;;;;;;;;;2122630;27;45821;-68
2021/07/29 04:07:06;;;;;;;;;;;;;;;;;;2113970;27;44233;-69
2021/07/29 04:08:09;;;;;;;;;;;;;;;;;;2122674;27;43608;-68
2021/07/29 04:09:11;;;;;;;;;;;;;;;;;;2122520;27;45187;-68
2021/07/29 04:10:12;;;;;;;;;;;;;;;;;;2123362;27;46677;-68
2021/07/29 04:11:14;;;;;;;;;;;;;;;;;;2122658;27;45449;-68
2021/07/29 04:12:15;;;;;;;;;;;;;;;;;;2113853;27;45117;-68
2021/07/29 04:13:18;;;;;;;;;;;;;;;;;;2122217;27;45447;-68
2021/07/29 04:14:19;;;;;;;;;;;;;;;;;;2114399;27;44485;-68
2021/07/29 04:15:21;;;;;;;;;;;;;;;;;;2114128;27;46066;-68
2021/07/29 04:16:22;;;;;;;;;;;;;;;;;;2114042;27;46554;-68
2021/07/29 04:17:24;;;;;;;;;;;;;;;;;;2123661;27;45873;-68
2021/07/29 04:18:26;;;;;;;;;;;;;;;;;;2123211;27;46111;-69
2021/07/29 04:19:30;;;;;;;;;;;;;;;;;;2122605;27;47253;-69
2021/07/29 04:20:32;;;;;;;;;;;;;;;;;;2114463;27;46071;-69
2021/07/29 04:21:33;;;;;;;;;;;;;;;;;;2122120;27;45811;-69
2021/07/29 04:22:34;;;;;;;;;;;;;;;;;;2122397;27;47345;-69
2021/07/29 04:23:36;;;;;;;;;;;;;;;;;;2123234;27;45897;-69
2021/07/29 04:24:37;;;;;;;;;;;;;;;;;;2124416;27;44645;-69
2021/07/29 04:25:39;;;;;;;;;;;;;;;;;;2122894;27;47042;-69
2021/07/29 04:26:40;;;;;;;;;;;;;;;;;;2122343;27;45873;-69
2021/07/29 04:27:42;;;;;;;;;;;;;;;;;;2121839;27;45939;-68
2021/07/29 04:28:43;;;;;;;;;;;;;;;;;;2122395;27;45951;-68
2021/07/29 04:29:45;;;;;;;;;;;;;;;;;;2122428;27;46288;-69
2021/07/29 04:30:46;;;;;;;;;;;;;;;;;;2122229;27;46931;-69
2021/07/29 04:31:47;;;;;;;;;;;;;;;;;;2121940;27;46207;-69
2021/07/29 04:32:49;;;;;;;;;;;;;;;;;;2123420;27;46101;-68
2021/07/29 04:33:52;;;;;;;;;;;;;;;;;;2121632;27;47256;-68
2021/07/29 04:34:54;;;;;;;;;;;;;;;;;;2114894;27;45988;-69
2021/07/29 04:35:55;;;;;;;;;;;;;;;;;;2122147;27;45898;-69
2021/07/29 04:36:56;;;;;;;;;;;;;;;;;;2122268;27;46581;-69
2021/07/29 04:37:58;;;;;;;;;;;;;;;;;;2122407;27;45626;-70
2021/07/29 04:39:02;;;;;;;;;;;;;;;;;;2122980;27;47122;-70
2021/07/29 04:40:04;;;;;;;;;;;;;;;;;;2123336;27;46181;-70
2021/07/29 04:41:05;;;;;;;;;;;;;;;;;;2122878;27;46709;-69
2021/07/29 04:42:07;;;;;;;;;;;;;;;;;;2122038;27;45522;-69
2021/07/29 04:43:08;;;;;;;;;;;;;;;;;;2122403;27;45043;-70
2021/07/29 04:44:11;;;;;;;;;;;;;;;;;;2122156;27;45279;-70
2021/07/29 04:45:12;;;;;;;;;;;;;;;;;;2122658;27;46655;-70
2021/07/29 04:46:14;;;;;;;;;;;;;;;;;;2122123;27;46263;-70
2021/07/29 04:47:16;;;;;;;;;;;;;;;;;;2114588;27;43643;-70
2021/07/29 04:48:18;;;;;;;;;;;;;;;;;;2114485;27;45205;-70
2021/07/29 04:49:20;;;;;;;;;;;;;;;;;;2114235;27;45457;-70
2021/07/29 04:50:22;;;;;;;;;;;;;;;;;;2114446;27;45246;-70
2021/07/29 04:51:23;;;;;;;;;;;;;;;;;;2113838;27;45279;-69
2021/07/29 04:52:25;;;;;;;;;;;;;;;;;;2113637;27;45549;-70
2021/07/29 04:53:28;;;;;;;;;;;;;;;;;;2122614;27;45313;-70
2021/07/29 04:54:29;;;;;;;;;;;;;;;;;;2118458;27;44103;-70
2021/07/29 04:55:30;;;;;;;;;;;;;;;;;;2113691;28;45188;-69
2021/07/29 04:56:32;;;;;;;;;;;;;;;;;;2114138;28;46344;-69
2021/07/29 04:57:33;;;;;;;;;;;;;;;;;;2113691;28;45294;-70
2021/07/29 04:58:35;;;;;;;;;;;;;;;;;;2114196;27;45590;-69
2021/07/29 04:59:40;;;;;;;;;;;;;;;;;;2115323;28;45112;-69
2021/07/29 05:00:41;;;;;;;;;;;;;;;;;;2107083;28;45192;-68
2021/07/29 05:01:42;;;;;;;;;;;;;;;;;;2115177;28;43427;-68
2021/07/29 05:02:44;;;;;;;;;;;;;;;;;;2114766;28;44192;-68
2021/07/29 05:03:46;;;;;;;;;;;;;;;;;;2107012;28;45432;-68
2021/07/29 05:04:47;;;;;;;;;;;;;;;;;;2115273;28;45400;-69
2021/07/29 05:05:48;;;;;;;;;;;;;;;;;;2115940;28;45398;-69
2021/07/29 05:06:50;;;;;;;;;;;;;;;;;;2115915;28;46449;-69
2021/07/29 05:07:52;;;;;;;;;;;;;;;;;;2115037;28;46817;-70
2021/07/29 05:08:53;;;;;;;;;;;;;;;;;;2114990;28;45908;-69
2021/07/29 05:09:54;;;;;;;;;;;;;;;;;;2115858;28;46598;-70
2021/07/29 05:10:56;;;;;;;;;;;;;;;;;;2115480;28;45461;-70
2021/07/29 05:11:57;;;;;;;;;;;;;;;;;;2115873;28;45698;-69
2021/07/29 05:12:59;;;;;;;;;;;;;;;;;;2115109;28;45471;-70
2021/07/29 05:14:00;;;;;;;;;;;;;;;;;;2106807;28;45271;-70
2021/07/29 05:15:02;;;;;;;;;;;;;;;;;;2115083;28;42676;-70
2021/07/29 05:16:04;;;;;;;;;;;;;;;;;;2115131;28;46410;-70
2021/07/29 05:17:06;;;;;;;;;;;;;;;;;;2115357;28;43136;-69
2021/07/29 05:18:08;;;;;;;;;;;;;;;;;;2115289;28;44278;-70
2021/07/29 05:19:09;;;;;;;;;;;;;;;;;;2115079;28;42448;-70
2021/07/29 05:20:11;;;;;;;;;;;;;;;;;;2106804;28;46824;-69
2021/07/29 05:21:12;;;;;;;;;;;;;;;;;;2115047;28;46574;-69
2021/07/29 05:22:15;;;;;;;;;;;;;;;;;;2115170;28;45286;-70
2021/07/29 05:23:16;;;;;;;;;;;;;;;;;;2107434;28;46411;-70
2021/07/29 05:24:17;;;;;;;;;;;;;;;;;;2115217;28;45815;-70
2021/07/29 05:25:22;;;;;;;;;;;;;;;;;;2115430;28;45883;-70
2021/07/29 05:26:24;;;;;;;;;;;;;;;;;;2116007;28;44492;-70
2021/07/29 05:27:25;;;;;;;;;;;;;;;;;;2117270;28;46280;-69
2021/07/29 05:28:27;;;;;;;;;;;;;;;;;;2116928;28;46957;-70
2021/07/29 05:29:30;;;;;;;;;;;;;;;;;;2125432;27;44609;-69
2021/07/29 05:30:34;;;;;;;;;;;;;;;;;;2125797;27;45840;-69
2021/07/29 05:31:37;;;;;;;;;;;;;;;;;;2117340;27;46133;-69
2021/07/29 05:32:39;;;;;;;;;;;;;;;;;;2124118;27;45771;-70
2021/07/29 05:33:40;;;;;;;;;;;;;;;;;;2124496;27;47257;-69
2021/07/29 05:34:42;;;;;;;;;;;;;;;;;;2125522;27;44461;-69
2021/07/29 05:35:43;;;;;;;;;;;;;;;;;;2115992;27;45521;-69
2021/07/29 05:36:45;;;;;;;;;;;;;;;;;;2123303;27;47207;-69
2021/07/29 05:37:46;;;;;;;;;;;;;;;;;;2123323;27;47152;-70
2021/07/29 05:38:47;;;;;;;;;;;;;;;;;;2124091;27;43088;-70
2021/07/29 05:39:49;;;;;;;;;;;;;;;;;;2123796;27;44447;-70
2021/07/29 05:40:50;;;;;;;;;;;;;;;;;;2123504;27;45242;-69
2021/07/29 05:41:52;;;;;;;;;;;;;;;;;;2123525;27;44296;-69
2021/07/29 05:42:53;;;;;;;;;;;;;;;;;;2115040;27;47220;-69
2021/07/29 05:43:55;;;;;;;;;;;;;;;;;;2123481;27;43452;-69
2021/07/29 05:44:56;;;;;;;;;;;;;;;;;;2123860;27;47012;-69
2021/07/29 05:45:57;;;;;;;;;;;;;;;;;;2116608;27;47209;-69
2021/07/29 05:46:59;;;;;;;;;;;;;;;;;;2106424;28;46479;-69
2021/07/29 05:48:01;;;;;;;;;;;;;;;;;;2106714;28;46009;-69
2021/07/29 05:49:02;;;;;;;;;;;;;;;;;;2106450;28;44911;-68
2021/07/29 05:50:04;;;;;;;;;;;;;;;;;;2115007;28;45428;-69
2021/07/29 05:51:05;;;;;;;;;;;;;;;;;;2115080;27;45544;-69
2021/07/29 05:52:07;;;;;;;;;;;;;;;;;;2114641;28;46726;-70
2021/07/29 05:53:08;;;;;;;;;;;;;;;;;;2114544;28;45304;-69
2021/07/29 05:54:10;;;;;;;;;;;;;;;;;;2115467;28;46864;-73
2021/07/29 05:55:11;;;;;;;;;;;;;;;;;;2115287;28;41613;-68
2021/07/29 05:56:12;;;;;;;;;;;;;;;;;;2114905;28;43768;-68
2021/07/29 05:57:14;;;;;;;;;;;;;;;;;;2114618;28;46370;-69
2021/07/29 05:58:15;;;;;;;;;;;;;;;;;;2114923;28;45294;-69
2021/07/29 05:59:17;;;;;;;;;;;;;;;;;;2112197;28;46480;-69
2021/07/29 06:00:18;;;;;;;;;;;;;;;;;;2114574;27;45620;-69
2021/07/29 06:01:22;;;;;;;;;;;;;;;;;;2111167;27;46398;-69
2021/07/29 06:02:24;;;;;;;;;;;;;;;;;;2114711;28;45342;-68
2021/07/29 06:03:25;;;;;;;;;;;;;;;;;;2114781;28;43794;-68
2021/07/29 06:04:27;;;;;;;;;;;;;;;;;;2106461;28;44844;-68
2021/07/29 06:05:29;;;;;;;;;;;;;;;;;;2106303;28;45381;-68
2021/07/29 06:06:30;;;;;;;;;;;;;;;;;;2114381;28;46400;-68
2021/07/29 06:07:33;;;;;;;;;;;;;;;;;;2115158;28;44091;-68
2021/07/29 06:08:35;;;;;;;;;;;;;;;;;;2115538;28;45974;-68
2021/07/29 06:09:36;;;;;;;;;;;;;;;;;;2115282;27;45363;-68
2021/07/29 06:10:38;;;;;;;;;;;;;;;;;;2117328;27;46727;-68
2021/07/29 06:11:39;;;;;;;;;;;;;;;;;;2120327;27;46909;-68
2021/07/29 06:12:40;;;;;;;;;;;;;;;;;;2123278;27;46798;-69
2021/07/29 06:13:42;;;;;;;;;;;;;;;;;;2122424;27;44010;-69
2021/07/29 06:14:43;;;;;;;;;;;;;;;;;;2111911;27;45252;-69
2021/07/29 06:15:45;;;;;;;;;;;;;;;;;;2122769;27;45404;-69
2021/07/29 06:16:46;;;;;;;;;;;;;;;;;;2123072;27;44853;-70
2021/07/29 06:17:55;;;;;;;;;;;;;;;;;;2118686;27;43856;-68
2021/07/29 06:19:07;;;;;;;;;;;;;;;;;;2121839;27;46516;-69
2021/07/29 06:20:09;;;;;;;;;;;;;;;;;;2121321;27;44399;-69
2021/07/29 06:21:11;;;;;;;;;;;;;;;;;;2122529;27;46862;-69
2021/07/29 06:22:12;;;;;;;;;;;;;;;;;;2122765;27;46706;-69
2021/07/29 06:23:14;;;;;;;;;;;;;;;;;;2123224;27;46445;-69
2021/07/29 06:24:17;;;;;;;;;;;;;;;;;;2122977;27;43547;-69
2021/07/29 06:25:18;;;;;;;;;;;;;;;;;;2114967;27;45732;-69
2021/07/29 06:26:21;;;;;;;;;;;;;;;;;;2120912;27;45058;-68
2021/07/29 06:27:23;;;;;;;;;;;;;;;;;;2123182;27;46353;-68
2021/07/29 06:28:31;;;;;;;;;;;;;;;;;;2114623;27;44396;-69
2021/07/29 06:29:32;;;;;;;;;;;;;;;;;;2123308;27;45403;-69
2021/07/29 06:30:34;;;;;;;;;;;;;;;;;;2122932;27;45910;-69
2021/07/29 06:31:35;;;;;;;;;;;;;;;;;;2123147;27;47184;-69
2021/07/29 06:32:37;;;;;;;;;;;;;;;;;;2122812;27;47246;-69
2021/07/29 06:33:38;;;;;;;;;;;;;;;;;;2123160;27;47712;-68
2021/07/29 06:34:40;;;;;;;;;;;;;;;;;;2122875;27;46985;-68
2021/07/29 06:35:41;;;;;;;;;;;;;;;;;;2131624;27;45962;-69
2021/07/29 06:36:43;;;;;;;;;;;;;;;;;;2130938;27;47141;-68
2021/07/29 06:37:44;;;;;;;;;;;;;;;;;;2124654;27;44260;-68
2021/07/29 06:38:45;;;;;;;;;;;;;;;;;;2131600;27;44818;-69
2021/07/29 06:39:47;;;;;;;;;;;;;;;;;;2131934;27;44077;-69
2021/07/29 06:40:48;;;;;;;;;;;;;;;;;;2122526;27;47032;-69
2021/07/29 06:41:51;;;;;;;;;;;;;;;;;;2123273;27;43858;-69
2021/07/29 06:42:52;;;;;;;;;;;;;;;;;;2123482;27;44469;-69
2021/07/29 06:43:57;;;;;;;;;;;;;;;;;;2122568;27;47322;-69
2021/07/29 06:45:02;;;;;;;;;;;;;;;;;;2115300;27;45916;-69
2021/07/29 06:46:04;;;;;;;;;;;;;;;;;;2123075;27;47340;-70
2021/07/29 06:47:06;;;;;;;;;;;;;;;;;;2122704;27;46914;-68
2021/07/29 06:48:07;;;;;;;;;;;;;;;;;;2119180;27;47398;-68
2021/07/29 06:49:08;;;;;;;;;;;;;;;;;;2123391;27;45823;-68
2021/07/29 06:50:10;;;;;;;;;;;;;;;;;;2122970;27;46344;-68
2021/07/29 06:51:12;;;;;;;;;;;;;;;;;;2122395;27;47298;-69
2021/07/29 06:52:14;;;;;;;;;;;;;;;;;;2123176;27;47365;-69
2021/07/29 06:53:15;;;;;;;;;;;;;;;;;;2114459;27;45416;-68
2021/07/29 06:54:17;;;;;;;;;;;;;;;;;;2122879;27;46467;-69
2021/07/29 06:55:18;;;;;;;;;;;;;;;;;;2123394;27;43312;-69
2021/07/29 06:56:20;;;;;;;;;;;;;;;;;;2122814;27;45217;-69
2021/07/29 06:57:21;;;;;;;;;;;;;;;;;;2122691;27;44472;-69
2021/07/29 06:58:22;;;;;;;;;;;;;;;;;;2123536;27;45288;-68
2021/07/29 06:59:24;;;;;;;;;;;;;;;;;;2123473;27;44099;-68
2021/07/29 07:00:25;;;;;;;;;;;;;;;;;;2122854;27;44123;-69
2021/07/29 07:01:27;;;;;;;;;;;;;;;;;;2113792;27;46285;-68
2021/07/29 07:02:28;;;;;;;;;;;;;;;;;;2122910;27;44061;-68
2021/07/29 07:03:30;;;;;;;;;;;;;;;;;;2121774;27;46560;-68